Time;durP1;ratioP1;P1;durP2;ratioP2;P2;SDS_P1;SDS_P2;PMS_P1;PMS_P2;Temp;Humidity;BMP_temperature;BMP_pressure;BME280_temperature;BME280_humidity;BME280_pressure;Samples;Min_cycle;Max_cycle;Signal;HPM_P1;HPM_P2
2023/06/03 00:01:51;;;;;;;2.92;1.30;;;;;;;5.31;72.66;100804.09;10282628;28;20408;-83
2023/06/03 00:06:53;;;;;;;1.75;1.30;;;;;;;5.33;72.02;100801.94;10241327;28;20050;-83
2023/06/03 00:11:56;;;;;;;3.80;2.03;;;;;;;5.22;73.14;100796.56;10205086;29;20055;-84
2023/06/03 00:16:58;;;;;;;3.28;2.08;;;;;;;5.02;74.11;100803.22;10267740;29;20496;-84
2023/06/03 00:22:02;;;;;;;6.60;2.40;;;;;;;5.00;73.69;100793.66;10264677;28;20517;-83
2023/06/03 00:27:04;;;;;;;3.67;2.50;;;;;;;5.09;73.65;100795.78;10281047;28;20062;-83
2023/06/03 00:32:07;;;;;;;2.72;1.75;;;;;;;5.07;73.11;100792.47;10245279;29;20035;-83
2023/06/03 00:37:09;;;;;;;2.65;1.58;;;;;;;4.98;72.65;100793.06;10262751;29;20155;-83
2023/06/03 00:42:11;;;;;;;3.13;1.70;;;;;;;4.91;72.37;100784.25;10202305;29;20039;-83
2023/06/03 00:47:18;;;;;;;3.67;1.65;;;;;;;4.87;72.29;100783.06;10249180;28;20039;-82
2023/06/03 00:52:22;;;;;;;3.53;1.87;;;;;;;4.91;72.76;100789.69;10247732;28;20062;-83
2023/06/03 00:57:24;;;;;;;2.20;1.38;;;;;;;4.93;72.59;100780.22;10265057;28;20039;-82
2023/06/03 01:02:27;;;;;;;3.35;2.00;;;;;;;4.97;72.49;100783.25;10231827;28;20058;-82
2023/06/03 01:07:48;;;;;;;3.28;1.55;;;;;;;5.03;72.74;100785.88;10268583;28;20080;-82
2023/06/03 01:13:13;;;;;;;2.25;1.60;;;;;;;5.11;71.78;100788.19;10248050;28;20050;-83
2023/06/03 01:18:16;;;;;;;2.42;1.80;;;;;;;5.18;71.79;100790.75;10249557;28;20058;-83
2023/06/03 01:23:23;;;;;;;3.60;2.10;;;;;;;5.20;71.82;100788.63;10236652;28;20054;-83
2023/06/03 01:28:28;;;;;;;2.22;1.50;;;;;;;5.22;71.57;100788.41;10268372;28;20416;-83
2023/06/03 01:33:32;;;;;;;2.08;1.83;;;;;;;5.27;72.58;100796.66;10271880;28;20031;-82
2023/06/03 01:38:35;;;;;;;4.60;1.88;;;;;;;5.35;73.35;100793.53;10266874;28;20039;-83
2023/06/03 01:43:37;;;;;;;4.45;1.70;;;;;;;5.40;72.84;100788.22;10238521;28;20072;-84
2023/06/03 01:48:39;;;;;;;4.05;2.25;;;;;;;5.44;72.63;100792.91;10288138;28;20043;-83
2023/06/03 01:53:42;;;;;;;2.03;1.33;;;;;;;5.65;71.73;100794.13;10254169;28;20432;-83
2023/06/03 01:58:44;;;;;;;1.42;0.98;;;;;;;6.18;69.59;100801.03;10248849;28;20043;-84
2023/06/03 02:03:47;;;;;;;2.30;1.33;;;;;;;6.54;69.06;100801.59;10239125;28;20047;-83
2023/06/03 02:08:50;;;;;;;1.92;1.40;;;;;;;6.76;68.16;100799.72;10235077;28;20051;-83
2023/06/03 02:13:52;;;;;;;3.55;1.55;;;;;;;7.04;67.58;100793.25;10234354;28;20048;-83
2023/06/03 02:18:54;;;;;;;3.10;1.45;;;;;;;7.26;66.43;100793.25;10252635;28;20043;-84
2023/06/03 02:23:56;;;;;;;2.85;2.08;;;;;;;7.47;66.24;100800.59;10238719;28;20043;-83
2023/06/03 02:28:59;;;;;;;2.30;1.70;;;;;;;7.56;65.40;100801.78;10267788;28;20043;-84
2023/06/03 02:34:01;;;;;;;3.63;1.80;;;;;;;7.70;64.12;100798.66;10223253;29;20058;-84
2023/06/03 02:39:04;;;;;;;2.00;1.50;;;;;;;7.89;62.42;100810.84;10269946;28;20042;-84
2023/06/03 02:44:06;;;;;;;2.28;1.90;;;;;;;8.15;61.98;100807.22;10281839;28;20051;-84
2023/06/03 02:49:10;;;;;;;2.40;2.00;;;;;;;8.56;61.38;100802.13;10251162;28;20082;-84
2023/06/03 02:54:12;;;;;;;1.80;1.48;;;;;;;8.90;59.65;100801.75;10252488;28;20047;-84
2023/06/03 02:59:15;;;;;;;2.35;1.30;;;;;;;9.21;58.32;100800.00;10250430;28;20039;-84
2023/06/03 03:04:17;;;;;;;1.70;1.17;;;;;;;9.70;56.21;100805.84;10243513;29;20043;-83
2023/06/03 03:09:20;;;;;;;1.15;0.95;;;;;;;9.80;55.39;100805.88;10233260;28;20043;-83
2023/06/03 03:14:23;;;;;;;1.13;1.00;;;;;;;9.70;54.95;100797.63;10249404;28;20460;-83
2023/06/03 03:19:26;;;;;;;0.98;0.80;;;;;;;9.57;54.90;100803.66;10242647;28;20035;-83
2023/06/03 03:24:30;;;;;;;2.03;1.25;;;;;;;9.78;54.82;100799.03;10268269;28;20049;-84
2023/06/03 03:29:33;;;;;;;1.60;1.23;;;;;;;10.14;53.89;100805.38;10279147;28;20050;-83
2023/06/03 03:34:41;;;;;;;2.38;1.38;;;;;;;10.20;53.20;100807.81;10265739;28;20035;-83
2023/06/03 03:39:44;;;;;;;2.25;1.17;;;;;;;10.23;53.41;100810.03;10266036;28;20062;-83
2023/06/03 03:44:47;;;;;;;2.42;1.40;;;;;;;10.61;52.32;100809.75;10251156;28;20043;-83
2023/06/03 03:49:50;;;;;;;3.30;1.85;;;;;;;11.04;51.54;100805.50;10248377;28;20435;-83
2023/06/03 03:54:53;;;;;;;3.22;1.08;;;;;;;11.34;51.31;100807.31;10231382;29;20054;-84
2023/06/03 03:59:55;;;;;;;1.10;0.80;;;;;;;11.63;50.09;100805.50;10261887;28;20412;-84
2023/06/03 04:04:59;;;;;;;1.52;0.88;;;;;;;11.29;51.20;100804.59;10265858;28;20050;-84
2023/06/03 04:10:02;;;;;;;1.02;0.77;;;;;;;11.75;50.44;100814.22;10246445;28;20472;-84
2023/06/03 04:15:05;;;;;;;1.70;0.80;;;;;;;12.20;49.12;100811.47;10267174;28;20042;-84
2023/06/03 04:20:37;;;;;;;4.03;1.38;;;;;;;12.31;48.79;100813.00;10249224;28;20424;-84
2023/06/03 04:25:41;;;;;;;0.82;0.80;;;;;;;12.54;48.50;100814.19;10249943;28;21118;-84
2023/06/03 04:30:44;;;;;;;1.40;0.82;;;;;;;12.33;48.04;100814.38;10222110;28;20047;-84
2023/06/03 04:35:46;;;;;;;1.95;0.90;;;;;;;12.71;47.97;100831.09;10252482;29;20047;-84
2023/06/03 04:40:48;;;;;;;1.95;1.02;;;;;;;12.74;47.62;100818.66;10264886;28;20078;-84
2023/06/03 04:45:54;;;;;;;0.93;0.88;;;;;;;13.06;47.05;100816.13;10246555;28;20047;-83
2023/06/03 04:50:57;;;;;;;1.30;0.82;;;;;;;13.16;47.39;100820.66;10230465;28;20070;-84
2023/06/03 04:56:01;;;;;;;2.47;1.73;;;;;;;13.61;46.03;100807.44;10258199;28;20043;-85
2023/06/03 05:01:04;;;;;;;1.75;0.77;;;;;;;13.61;45.65;100812.97;10246075;28;20039;-83
2023/06/03 05:06:11;;;;;;;1.60;0.95;;;;;;;14.01;45.64;100823.38;10203213;28;20051;-84
2023/06/03 05:11:15;;;;;;;2.22;0.95;;;;;;;14.39;44.88;100815.03;10249491;28;20123;-84
2023/06/03 05:16:18;;;;;;;1.13;0.80;;;;;;;14.68;44.37;100815.66;10258023;28;20051;-85
2023/06/03 05:21:21;;;;;;;1.40;1.10;;;;;;;14.63;43.18;100832.34;10231610;28;20051;-84
2023/06/03 05:26:24;;;;;;;1.92;0.80;;;;;;;15.02;43.47;100826.34;10250073;28;20035;-84
2023/06/03 05:31:27;;;;;;;1.27;0.93;;;;;;;15.60;41.05;100822.94;10248056;28;20054;-84
2023/06/03 05:36:30;;;;;;;1.80;1.00;;;;;;;14.57;42.52;100838.22;10225634;29;20055;-84
2023/06/03 05:41:35;;;;;;;1.45;0.90;;;;;;;15.29;41.66;100842.13;10196110;29;20048;-84
2023/06/03 05:46:38;;;;;;;1.45;0.98;;;;;;;15.30;41.27;100832.69;10243948;28;20042;-85
2023/06/03 05:51:41;;;;;;;1.65;1.10;;;;;;;15.44;40.87;100829.09;10233052;28;20507;-87
2023/06/03 05:56:43;;;;;;;2.92;1.00;;;;;;;15.48;41.10;100835.66;10233727;28;20059;-84
2023/06/03 06:01:46;;;;;;;1.75;1.13;;;;;;;16.14;39.35;100823.09;10249249;28;20039;-86
2023/06/03 06:06:49;;;;;;;1.15;0.75;;;;;;;15.95;38.77;100828.78;10244711;28;20420;-90
2023/06/03 06:11:51;;;;;;;0.93;0.82;;;;;;;16.17;38.37;100819.72;10245696;28;20046;-87
2023/06/03 06:16:54;;;;;;;2.97;0.70;;;;;;;15.71;39.49;100820.78;10236453;28;20047;-85
2023/06/03 06:21:56;;;;;;;1.33;1.23;;;;;;;15.82;39.57;100819.44;10275005;28;20035;-86
2023/06/03 06:26:59;;;;;;;1.20;0.60;;;;;;;17.13;36.90;100816.34;10252770;28;20039;-86
2023/06/03 06:32:06;;;;;;;0.60;0.60;;;;;;;16.45;35.81;100818.44;10273941;28;20061;-91
2023/06/03 06:37:09;;;;;;;0.38;0.30;;;;;;;14.87;36.67;100818.34;10256553;28;20274;-89
2023/06/03 06:42:32;;;;;;;0.95;0.52;;;;;;;13.56;38.71;100822.94;10238975;29;20049;-92
2023/06/03 06:47:46;;;;;;;0.30;0.30;;;;;;;14.31;37.85;100812.97;10271033;28;20043;-86
2023/06/03 06:52:49;;;;;;;0.32;0.32;;;;;;;16.21;34.61;100807.69;10253671;28;20464;-85
2023/06/03 06:57:54;;;;;;;0.30;0.22;;;;;;;15.12;34.96;100813.47;10271398;28;20047;-86
2023/06/03 07:02:56;;;;;;;1.58;0.43;;;;;;;13.94;37.53;100820.19;10258100;28;20417;-85
2023/06/03 07:08:02;;;;;;;0.38;0.30;;;;;;;13.36;37.57;100820.44;10258941;28;20603;-86
2023/06/03 07:13:06;;;;;;;0.43;0.40;;;;;;;12.81;38.01;100817.19;10238389;29;20039;-86
2023/06/03 07:18:10;;;;;;;0.30;0.30;;;;;;;13.82;37.10;100815.13;10235351;28;20050;-84
2023/06/03 07:23:24;;;;;;;0.47;0.35;;;;;;;13.69;36.44;100810.34;10270019;29;20043;-85
2023/06/03 07:28:32;;;;;;;0.32;0.32;;;;;;;12.81;36.92;100814.44;10290475;28;20106;-85
2023/06/03 07:33:53;;;;;;;1.30;0.52;;;;;;;13.54;36.70;100805.88;10281047;29;20059;-83
2023/06/03 07:39:08;;;;;;;0.93;0.50;;;;;;;14.03;35.71;100812.88;10245191;29;20047;-85
2023/06/03 07:44:15;;;;;;;1.38;0.30;;;;;;;15.39;33.59;100797.66;10248734;29;20524;-83
2023/06/03 07:49:19;;;;;;;0.35;0.35;;;;;;;15.04;34.85;100806.69;10228897;29;20059;-85
2023/06/03 07:54:22;;;;;;;0.57;0.57;;;;;;;13.94;36.36;100805.59;10246402;29;20047;-86
2023/06/03 07:59:26;;;;;;;1.45;1.00;;;;;;;13.63;37.77;100805.22;10268257;29;20408;-85
2023/06/03 08:04:34;;;;;;;4.15;1.60;;;;;;;13.14;38.07;100818.19;10267458;29;20046;-86
2023/06/03 08:09:37;;;;;;;5.15;3.97;;;;;;;13.10;37.60;100810.81;10282449;29;20050;-87
2023/06/03 08:14:40;;;;;;;1.67;1.58;;;;;;;14.79;35.87;100810.78;10251115;29;20497;-87
2023/06/03 08:19:45;;;;;;;1.10;1.00;;;;;;;16.00;35.23;100805.75;10267817;29;20526;-87
2023/06/03 08:24:48;;;;;;;1.13;0.50;;;;;;;14.96;39.56;100807.41;10267407;29;20054;-87
2023/06/03 08:29:52;;;;;;;2.17;0.85;;;;;;;13.61;41.26;100816.53;10284101;28;20995;-86
2023/06/03 08:34:54;;;;;;;1.67;0.80;;;;;;;12.97;42.52;100821.44;10284910;29;20058;-86
2023/06/03 08:39:56;;;;;;;1.42;0.90;;;;;;;12.50;42.64;100818.63;10268729;29;20042;-87
2023/06/03 08:45:03;;;;;;;1.23;0.80;;;;;;;14.45;37.73;100816.63;10268691;29;20070;-84
2023/06/03 08:50:10;;;;;;;1.20;0.68;;;;;;;15.69;34.94;100811.97;10283766;29;20065;-85
2023/06/03 08:55:17;;;;;;;0.73;0.70;;;;;;;16.05;32.75;100811.97;10252445;29;20047;-87
2023/06/03 09:00:23;;;;;;;2.55;0.52;;;;;;;15.95;36.09;100809.44;10236187;29;20035;-85
2023/06/03 09:05:26;;;;;;;2.93;1.10;;;;;;;15.19;38.38;100803.63;10252858;29;20050;-84
2023/06/03 09:10:30;;;;;;;1.05;0.77;;;;;;;15.08;38.86;100824.28;10252158;29;20039;-84
2023/06/03 09:15:32;;;;;;;0.95;0.85;;;;;;;14.28;40.98;100827.38;10253151;29;20051;-83
2023/06/03 09:20:35;;;;;;;2.58;1.20;;;;;;;13.43;43.50;100822.84;10267334;29;20054;-84
2023/06/03 09:25:37;;;;;;;1.65;1.40;;;;;;;12.91;44.51;100839.13;10267030;29;20073;-85
2023/06/03 09:30:40;;;;;;;2.03;1.50;;;;;;;12.43;46.32;100840.16;10281372;29;20523;-83
2023/06/03 09:35:42;;;;;;;1.90;1.10;;;;;;;12.40;46.29;100838.81;10249855;29;20047;-83
2023/06/03 09:40:44;;;;;;;1.33;1.23;;;;;;;12.91;45.39;100827.28;10265163;29;20421;-86
2023/06/03 09:45:47;;;;;;;1.30;0.70;;;;;;;13.03;44.25;100835.16;10272059;29;20050;-84
2023/06/03 09:50:51;;;;;;;1.70;0.70;;;;;;;12.53;46.03;100845.56;10272619;29;20051;-85
2023/06/03 09:55:54;;;;;;;1.92;0.85;;;;;;;12.07;50.26;100856.94;10273423;29;20035;-84
2023/06/03 10:00:58;;;;;;;1.13;0.80;;;;;;;11.75;52.60;100855.44;10272914;29;20058;-85
2023/06/03 10:06:17;;;;;;;1.02;0.70;;;;;;;11.57;53.91;100852.53;10271833;29;20527;-85
2023/06/03 10:11:22;;;;;;;2.15;0.88;;;;;;;11.95;55.76;100853.72;10270478;29;20039;-83
2023/06/03 10:16:25;;;;;;;2.20;0.70;;;;;;;12.74;51.87;100844.28;10271459;29;20131;-86
2023/06/03 10:21:28;;;;;;;2.20;0.70;;;;;;;12.73;49.18;100837.13;10260746;29;20039;-86
2023/06/03 10:26:31;;;;;;;1.75;0.80;;;;;;;12.74;48.56;100846.19;10271722;29;20047;-86
2023/06/03 10:31:34;;;;;;;2.88;0.65;;;;;;;12.10;50.66;100863.78;10271639;29;20047;-86
2023/06/03 10:36:37;;;;;;;1.33;0.60;;;;;;;11.47;51.55;100880.91;10271076;29;20408;-87
2023/06/03 10:41:39;;;;;;;1.77;0.70;;;;;;;11.34;53.32;100865.00;10271945;29;20043;-84
2023/06/03 10:46:49;;;;;;;1.33;1.08;;;;;;;11.31;54.06;100862.81;10286719;28;20051;-86
2023/06/03 10:52:18;;;;;;;1.45;0.88;;;;;;;11.44;51.89;100854.78;10270483;28;20059;-85
2023/06/03 10:57:25;;;;;;;0.60;0.60;;;;;;;11.48;50.84;100860.56;10286359;28;20054;-85
2023/06/03 11:03:04;;;;;;;1.73;0.73;;;;;;;11.78;49.71;100867.81;10287189;28;20055;-84
2023/06/03 11:08:06;;;;;;;0.60;0.60;;;;;;;12.14;48.08;100876.69;10242417;29;20059;-85
2023/06/03 11:13:13;;;;;;;0.38;0.38;;;;;;;12.14;48.17;100892.38;10270264;29;20062;-87
2023/06/03 11:18:16;;;;;;;2.00;0.70;;;;;;;11.82;50.32;100890.13;10269750;29;20059;-86
2023/06/03 11:23:40;;;;;;;0.40;0.40;;;;;;;11.99;49.72;100876.81;10256441;29;20481;-86
2023/06/03 11:28:43;;;;;;;1.38;0.45;;;;;;;12.50;48.16;100884.69;10270857;29;20055;-86
2023/06/03 11:34:20;;;;;;;0.95;0.68;;;;;;;12.84;48.83;100887.41;10270459;29;20500;-86
2023/06/03 11:39:22;;;;;;;2.15;0.70;;;;;;;13.08;48.80;100874.50;10254843;29;20050;-83
2023/06/03 11:44:25;;;;;;;0.63;0.60;;;;;;;13.38;48.61;100878.06;10254687;29;20054;-85
2023/06/03 11:49:27;;;;;;;0.68;0.57;;;;;;;13.20;48.14;100869.44;10269659;28;20058;-84
2023/06/03 11:54:30;;;;;;;2.08;0.82;;;;;;;13.24;49.32;100864.16;10269338;29;20040;-84
2023/06/03 11:59:41;;;;;;;1.42;0.90;;;;;;;13.42;49.04;100871.66;10253711;29;20492;-86
2023/06/03 12:04:45;;;;;;;4.50;0.80;;;;;;;13.31;48.44;100864.59;10238218;28;20054;-85
2023/06/03 12:09:56;;;;;;;1.65;0.65;;;;;;;13.16;50.02;100867.50;10265377;29;20055;-86
2023/06/03 12:15:05;;;;;;;1.30;1.00;;;;;;;13.07;50.65;100875.59;10252132;29;20420;-85
2023/06/03 12:20:09;;;;;;;0.45;0.45;;;;;;;12.77;50.81;100887.75;10253256;29;20050;-84
2023/06/03 12:25:21;;;;;;;1.30;0.52;;;;;;;12.68;48.45;100884.81;10252052;29;20223;-86
2023/06/03 12:30:31;;;;;;;1.17;0.45;;;;;;;12.47;46.88;100894.31;10283151;29;20051;-84
2023/06/03 12:35:33;;;;;;;2.35;0.73;;;;;;;12.32;47.33;100891.69;10267173;29;20062;-86
2023/06/03 12:40:36;;;;;;;3.33;0.70;;;;;;;12.12;46.78;100884.41;10282805;28;20413;-86
2023/06/03 12:45:39;;;;;;;1.30;0.90;;;;;;;12.28;47.81;100885.94;10251051;29;20139;-82
2023/06/03 12:50:41;;;;;;;1.67;0.65;;;;;;;12.48;46.56;100893.22;10267119;28;20051;-84
2023/06/03 12:55:44;;;;;;;0.90;0.80;;;;;;;12.54;48.64;100883.81;10283616;29;20421;-84
2023/06/03 13:00:47;;;;;;;2.00;1.00;;;;;;;12.78;48.07;100886.63;10231574;29;20058;-85
2023/06/03 13:05:50;;;;;;;2.05;0.60;;;;;;;12.64;46.78;100888.41;10253353;29;20047;-84
2023/06/03 13:10:52;;;;;;;3.55;2.25;;;;;;;12.36;47.64;100890.84;10250346;29;20050;-87
2023/06/03 13:15:55;;;;;;;2.42;1.23;;;;;;;12.00;49.48;100894.97;10234515;29;20039;-85
2023/06/03 13:20:57;;;;;;;0.70;0.70;;;;;;;11.92;51.20;100890.84;10265506;29;20039;-86
2023/06/03 13:25:59;;;;;;;2.65;1.80;;;;;;;11.86;52.12;100900.25;10250004;29;20386;-85
2023/06/03 13:31:02;;;;;;;3.83;0.80;;;;;;;11.72;53.62;100891.75;10250134;29;20073;-85
2023/06/03 13:36:05;;;;;;;2.47;0.60;;;;;;;11.62;54.18;100902.78;10250179;29;20043;-86
2023/06/03 13:41:07;;;;;;;1.42;0.70;;;;;;;11.49;53.85;100895.19;10234284;29;20424;-85
2023/06/03 13:46:09;;;;;;;1.60;0.95;;;;;;;11.50;53.49;100896.00;10234293;29;20046;-85
2023/06/03 13:51:11;;;;;;;1.92;0.73;;;;;;;11.68;53.35;100889.88;10265469;29;20058;-83
2023/06/03 13:56:13;;;;;;;0.50;0.50;;;;;;;11.75;52.41;100907.69;10234069;29;20051;-85
2023/06/03 14:01:16;;;;;;;1.20;0.60;;;;;;;11.68;53.70;100898.94;10265584;29;20040;-85
2023/06/03 14:06:19;;;;;;;2.15;0.77;;;;;;;11.55;53.91;100893.22;10233567;29;20054;-83
2023/06/03 14:11:22;;;;;;;0.90;0.80;;;;;;;11.40;53.38;100894.91;10246893;29;20043;-84
2023/06/03 14:16:26;;;;;;;5.90;1.23;;;;;;;11.25;53.59;100889.47;10264163;29;20058;-85
2023/06/03 14:21:28;;;;;;;5.63;0.95;;;;;;;11.26;53.26;100882.06;10217959;29;20039;-85
2023/06/03 14:26:35;;;;;;;0.55;0.55;;;;;;;11.63;51.67;100881.66;10248868;29;20051;-84
2023/06/03 14:31:38;;;;;;;3.40;0.90;;;;;;;11.76;52.29;100886.50;10239721;29;20054;-84
2023/06/03 14:36:40;;;;;;;2.13;0.70;;;;;;;11.88;52.67;100888.97;10239974;29;20047;-86
2023/06/03 14:41:42;;;;;;;1.02;0.60;;;;;;;11.82;54.06;100890.94;10240295;29;20051;-85
2023/06/03 14:46:44;;;;;;;0.65;0.60;;;;;;;11.62;55.74;100894.56;10239762;29;20051;-85
2023/06/03 14:51:46;;;;;;;1.52;0.60;;;;;;;10.93;56.27;100917.28;10254703;29;20059;-85
2023/06/03 14:56:55;;;;;;;0.85;0.60;;;;;;;10.22;57.62;100940.03;10271264;29;20039;-84
2023/06/03 15:02:00;;;;;;;0.43;0.43;;;;;;;9.77;58.85;100950.84;10255176;29;20063;-85
2023/06/03 15:07:02;;;;;;;2.17;0.57;;;;;;;9.49;63.55;100960.31;10271284;29;20047;-86
2023/06/03 15:12:05;;;;;;;0.80;0.43;;;;;;;9.23;68.21;100960.19;10270284;29;20051;-85
2023/06/03 15:17:08;;;;;;;0.63;0.60;;;;;;;9.17;69.28;100939.31;10270401;29;20043;-84
2023/06/03 15:22:10;;;;;;;0.75;0.65;;;;;;;9.33;70.31;100935.56;10286087;29;20042;-85
2023/06/03 15:27:12;;;;;;;1.45;1.30;;;;;;;9.54;71.24;100933.75;10270140;29;20053;-83
2023/06/03 15:32:14;;;;;;;3.15;1.30;;;;;;;9.69;68.98;100935.72;10286223;29;20039;-84
2023/06/03 15:37:17;;;;;;;2.92;2.00;;;;;;;9.75;68.60;100937.44;10269916;29;20062;-84
2023/06/03 15:42:19;;;;;;;3.50;1.85;;;;;;;9.76;69.39;100944.56;10252707;29;20039;-83
2023/06/03 15:47:21;;;;;;;3.35;2.22;;;;;;;9.74;69.78;100943.19;10290094;29;20049;-84
2023/06/03 15:52:23;;;;;;;2.92;2.25;;;;;;;9.82;69.73;100932.50;10285628;29;20448;-85
2023/06/03 15:57:26;;;;;;;2.55;1.20;;;;;;;9.82;69.74;100927.03;10268937;29;20043;-83
2023/06/03 16:02:28;;;;;;;1.27;0.93;;;;;;;9.84;69.88;100927.56;10268144;29;20039;-84
2023/06/03 16:07:30;;;;;;;1.45;1.35;;;;;;;9.94;69.85;100938.59;10268243;29;20050;-83
2023/06/03 16:12:32;;;;;;;1.75;1.02;;;;;;;10.01;69.98;100934.75;10249730;29;20046;-84
2023/06/03 16:17:35;;;;;;;2.03;1.23;;;;;;;9.99;70.46;100918.56;10235588;29;20047;-84
2023/06/03 16:22:37;;;;;;;3.13;1.60;;;;;;;9.94;70.68;100922.13;10283329;29;20500;-85
2023/06/03 16:27:40;;;;;;;1.17;1.08;;;;;;;9.88;71.09;100925.13;10283221;29;20073;-84
2023/06/03 16:32:42;;;;;;;2.10;1.52;;;;;;;9.89;70.39;100908.44;10251403;29;20416;-85
2023/06/03 16:37:44;;;;;;;2.22;1.10;;;;;;;9.87;69.42;100913.31;10251425;29;20047;-85
2023/06/03 16:42:49;;;;;;;1.98;1.30;;;;;;;9.91;68.46;100910.91;10267242;29;20043;-84
2023/06/03 16:47:52;;;;;;;2.00;1.10;;;;;;;10.05;67.74;100897.47;10266948;29;20043;-84
2023/06/03 16:52:54;;;;;;;1.42;1.20;;;;;;;10.06;67.81;100888.97;10282978;28;20098;-84
2023/06/03 16:57:56;;;;;;;3.17;1.15;;;;;;;10.08;66.56;100895.03;10266353;29;20047;-84
2023/06/03 17:02:58;;;;;;;2.22;1.20;;;;;;;10.05;66.84;100894.72;10266387;29;20050;-85
2023/06/03 17:08:01;;;;;;;2.83;1.10;;;;;;;10.03;67.16;100899.66;10282551;29;20441;-85
2023/06/03 17:13:03;;;;;;;1.88;1.30;;;;;;;9.94;66.97;100902.94;10287794;29;20054;-85
2023/06/03 17:18:05;;;;;;;2.08;1.42;;;;;;;9.89;67.36;100902.94;10265925;29;20043;-83
2023/06/03 17:23:07;;;;;;;2.00;1.20;;;;;;;9.85;67.70;100904.56;10265885;29;20055;-84
2023/06/03 17:28:09;;;;;;;2.45;1.30;;;;;;;9.83;67.63;100916.88;10281985;29;20051;-83
2023/06/03 17:33:11;;;;;;;2.03;1.70;;;;;;;9.92;67.74;100915.28;10281639;29;20046;-84
2023/06/03 17:38:14;;;;;;;2.38;1.10;;;;;;;9.97;67.98;100913.38;10249512;29;20050;-84
2023/06/03 17:43:17;;;;;;;2.45;1.20;;;;;;;9.98;68.07;100915.00;10265639;29;20071;-84
2023/06/03 17:48:19;;;;;;;3.92;1.20;;;;;;;9.89;68.45;100913.91;10246825;29;20620;-84
2023/06/03 17:53:21;;;;;;;3.67;1.35;;;;;;;9.88;68.55;100909.50;10223076;29;20067;-84
2023/06/03 17:58:25;;;;;;;3.78;1.30;;;;;;;9.87;69.02;100910.59;10263316;29;20440;-83
2023/06/03 18:03:27;;;;;;;3.55;1.50;;;;;;;9.90;68.29;100912.00;10266921;28;20047;-84
2023/06/03 18:08:29;;;;;;;5.63;2.22;;;;;;;9.87;68.97;100899.63;10223740;29;20050;-82
2023/06/03 18:13:32;;;;;;;4.35;2.08;;;;;;;9.87;68.87;100899.63;10253431;29;20055;-84
2023/06/03 18:18:34;;;;;;;3.58;2.25;;;;;;;9.93;69.32;100905.97;10225361;29;20043;-86
2023/06/03 18:23:36;;;;;;;2.20;1.77;;;;;;;9.93;68.89;100901.31;10273448;29;20031;-84
2023/06/03 18:28:39;;;;;;;2.78;1.77;;;;;;;10.02;70.02;100904.31;10280214;29;20039;-86
2023/06/03 18:33:47;;;;;;;2.55;1.60;;;;;;;10.02;69.29;100898.00;10274661;29;20044;-81
2023/06/03 18:38:50;;;;;;;2.80;1.58;;;;;;;10.03;69.85;100897.75;10250492;29;20050;-81
2023/06/03 18:43:52;;;;;;;1.65;1.42;;;;;;;10.12;69.82;100893.38;10289076;29;20054;-82
2023/06/03 18:48:55;;;;;;;3.47;1.33;;;;;;;10.12;69.81;100885.16;10287627;29;20043;-81
2023/06/03 18:53:57;;;;;;;2.40;1.20;;;;;;;10.11;70.20;100879.94;10265907;29;20061;-82
2023/06/03 18:58:59;;;;;;;1.42;0.95;;;;;;;10.09;70.12;100873.91;10255897;29;20050;-82
2023/06/03 19:04:02;;;;;;;2.22;1.27;;;;;;;10.20;69.25;100878.28;10253787;29;20054;-84
2023/06/03 19:09:08;;;;;;;2.08;1.20;;;;;;;10.13;70.01;100883.25;10255431;29;20530;-87
2023/06/03 19:14:11;;;;;;;2.50;1.40;;;;;;;10.10;69.79;100881.03;10255585;28;20540;-84
2023/06/03 19:19:14;;;;;;;1.83;1.20;;;;;;;10.04;69.80;100873.88;10259358;29;20046;-84
2023/06/03 19:24:16;;;;;;;3.90;1.50;;;;;;;10.03;70.32;100870.31;10251880;29;20054;-85
2023/06/03 19:29:19;;;;;;;3.67;1.50;;;;;;;10.06;70.85;100866.22;10254420;28;20055;-84
2023/06/03 19:34:21;;;;;;;4.28;1.60;;;;;;;10.07;70.82;100859.66;10249051;29;20039;-84
2023/06/03 19:39:24;;;;;;;1.65;1.08;;;;;;;10.15;71.54;100850.88;10279971;29;20047;-85
2023/06/03 19:44:26;;;;;;;5.72;1.00;;;;;;;10.06;71.28;100858.81;10273346;29;20035;-82
2023/06/03 19:49:29;;;;;;;1.58;1.10;;;;;;;10.07;72.04;100855.00;10271742;29;20043;-83
2023/06/03 19:54:31;;;;;;;1.77;1.00;;;;;;;10.04;72.32;100847.28;10258070;29;20055;-85
2023/06/03 19:59:34;;;;;;;3.53;1.95;;;;;;;9.96;73.15;100851.41;10290815;29;20058;-85
2023/06/03 20:04:37;;;;;;;2.75;0.93;;;;;;;9.91;73.78;100847.84;10242530;29;20049;-85
2023/06/03 20:09:39;;;;;;;2.28;1.10;;;;;;;9.84;73.99;100842.59;10246655;29;20047;-86
2023/06/03 20:14:41;;;;;;;1.42;0.65;;;;;;;9.83;74.54;100840.16;10261978;29;20039;-84
2023/06/03 20:19:44;;;;;;;3.42;1.08;;;;;;;9.79;74.76;100848.09;10268484;28;20055;-83
2023/06/03 20:24:46;;;;;;;1.85;0.98;;;;;;;9.75;75.78;100840.69;10280189;28;20054;-82
2023/06/03 20:29:49;;;;;;;1.13;1.02;;;;;;;9.72;76.12;100844.78;10249911;29;20059;-84
2023/06/03 20:34:51;;;;;;;3.30;0.80;;;;;;;9.61;76.71;100832.16;10253121;29;20031;-82
2023/06/03 20:39:53;;;;;;;3.60;1.08;;;;;;;9.55;77.26;100828.59;10253082;29;20047;-85
2023/06/03 20:44:56;;;;;;;1.83;0.85;;;;;;;9.53;77.49;100818.97;10269154;29;20427;-85
2023/06/03 20:50:01;;;;;;;2.10;0.90;;;;;;;9.54;77.09;100821.44;10274551;28;20055;-84
2023/06/03 20:55:04;;;;;;;1.27;0.75;;;;;;;9.54;77.12;100815.94;10269875;29;20624;-85
2023/06/03 21:00:07;;;;;;;3.65;0.85;;;;;;;9.51;75.92;100821.16;10253939;29;20039;-86
2023/06/03 21:05:09;;;;;;;0.80;0.60;;;;;;;9.58;76.21;100817.09;10328705;28;20049;-84
2023/06/03 21:10:11;;;;;;;1.25;0.90;;;;;;;9.52;75.54;100822.81;10264439;28;20046;-86
2023/06/03 21:15:14;;;;;;;1.17;0.90;;;;;;;9.50;75.24;100808.56;10265638;29;20042;-83
2023/06/03 21:20:16;;;;;;;1.45;0.77;;;;;;;9.48;75.51;100808.00;10267864;29;20840;-83
2023/06/03 21:25:18;;;;;;;1.60;1.00;;;;;;;9.53;74.69;100811.56;10241439;29;20047;-85
2023/06/03 21:30:20;;;;;;;1.30;0.70;;;;;;;9.59;75.09;100804.22;10282879;29;20138;-84
2023/06/03 21:35:22;;;;;;;0.60;0.45;;;;;;;9.58;74.80;100799.81;10264660;29;20047;-85
2023/06/03 21:40:25;;;;;;;0.85;0.52;;;;;;;9.54;75.15;100788.56;10265955;29;20413;-84
2023/06/03 21:45:27;;;;;;;1.00;0.73;;;;;;;9.53;74.96;100792.41;10217799;29;20055;-85
2023/06/03 21:50:30;;;;;;;1.17;0.57;;;;;;;9.54;75.09;100785.81;10231603;29;20049;-83
2023/06/03 21:55:33;;;;;;;0.98;0.70;;;;;;;9.57;75.22;100787.22;10253341;29;20039;-84
2023/06/03 22:00:35;;;;;;;1.50;0.65;;;;;;;9.55;74.57;100784.75;10256823;29;20050;-84
2023/06/03 22:05:38;;;;;;;0.88;0.50;;;;;;;9.53;74.34;100786.91;10255969;29;20042;-87
2023/06/03 22:10:40;;;;;;;1.25;0.60;;;;;;;9.52;73.78;100782.53;10257646;29;20040;-86
2023/06/03 22:15:42;;;;;;;0.55;0.40;;;;;;;9.51;72.92;100782.81;10216989;29;20066;-86
2023/06/03 22:20:44;;;;;;;0.73;0.68;;;;;;;9.51;73.03;100780.88;10233889;29;20043;-84
2023/06/03 22:25:47;;;;;;;1.40;0.70;;;;;;;9.49;72.85;100776.78;10254003;28;20054;-83
2023/06/03 22:30:50;;;;;;;2.63;0.50;;;;;;;9.48;72.43;100766.91;10231910;29;20039;-83
2023/06/03 22:35:53;;;;;;;0.98;0.45;;;;;;;9.47;71.64;100768.00;10232908;29;20035;-84
2023/06/03 22:40:56;;;;;;;1.50;0.68;;;;;;;9.52;71.51;100765.28;10239922;29;20054;-84
2023/06/03 22:45:58;;;;;;;0.98;0.40;;;;;;;9.51;72.10;100758.97;10255108;29;20043;-85
2023/06/03 22:51:02;;;;;;;1.55;0.70;;;;;;;9.54;72.96;100763.91;10270369;28;20535;-86
2023/06/03 22:56:04;;;;;;;1.27;0.65;;;;;;;9.51;72.76;100753.50;10235781;29;20050;-85
2023/06/03 23:01:06;;;;;;;1.20;0.80;;;;;;;9.46;73.04;100748.00;10285925;29;20047;-83
2023/06/03 23:06:08;;;;;;;1.15;0.60;;;;;;;9.36;73.18;100746.06;10246496;29;20055;-82
2023/06/03 23:11:11;;;;;;;1.67;0.55;;;;;;;9.30;73.67;100746.34;10218667;29;20520;-82
2023/06/03 23:16:13;;;;;;;0.47;0.47;;;;;;;9.24;74.00;100740.03;10230277;29;20414;-83
2023/06/03 23:21:16;;;;;;;1.60;0.63;;;;;;;9.19;73.88;100733.69;10230114;29;20425;-84
2023/06/03 23:26:18;;;;;;;0.93;0.57;;;;;;;9.18;73.28;100735.63;10233238;29;20415;-86